Time;durP1;ratioP1;P1;durP2;ratioP2;P2;SDS_P1;SDS_P2;PMS_P1;PMS_P2;Temp;Humidity;BMP_temperature;BMP_pressure;BME280_temperature;BME280_humidity;BME280_pressure;Samples;Min_cycle;Max_cycle;Signal;HPM_P1;HPM_P2
2022/01/13 00:01:02;;;;;;;60.23;26.40;;;;;;;-0.12;92.24;102285.72;1668924;85;28329;-77
2022/01/13 00:03:28;;;;;;;65.37;28.10;;;;;;;-0.12;92.18;102276.95;1668830;85;25827;-77
2022/01/13 00:05:54;;;;;;;62.88;26.05;;;;;;;-0.12;92.07;102274.33;1668913;85;25810;-77
2022/01/13 00:08:20;;;;;;;59.55;27.70;;;;;;;-0.13;92.15;102279.22;1668658;84;26634;-77
2022/01/13 00:10:46;;;;;;;67.60;29.72;;;;;;;-0.14;92.11;102283.63;1668785;85;25723;-77
2022/01/13 00:13:21;;;;;;;49.85;22.10;;;;;;;-0.10;92.01;102286.48;1664755;85;28253;-77
2022/01/13 00:15:49;;;;;;;67.35;27.95;;;;;;;-0.09;92.19;102286.03;1664439;85;25764;-77
2022/01/13 00:18:14;;;;;;;65.37;26.23;;;;;;;-0.12;92.05;102275.64;1668121;85;25855;-77
2022/01/13 00:26:13;;;;;;;63.17;26.75;;;;;;;-0.12;92.19;102226.92;1666486;85;28669;-77
2022/01/13 00:28:35;;;;;;;72.87;28.57;;;;;;;-0.12;92.39;102232.19;1668300;85;26514;-77
2022/01/13 00:31:05;;;;;;;66.53;26.87;;;;;;;-0.12;92.16;102239.63;1668800;84;25887;-77
2022/01/13 00:33:29;;;;;;;67.62;29.35;;;;;;;-0.11;92.11;102251.02;1668086;85;26903;-76
2022/01/13 00:35:59;;;;;;;64.42;28.50;;;;;;;-0.08;92.07;102256.11;1668605;85;25855;-77
2022/01/13 00:38:29;;;;;;;68.17;27.80;;;;;;;-0.06;92.07;102247.21;1668667;85;27478;-77
2022/01/13 00:40:55;;;;;;;60.75;27.07;;;;;;;-0.06;91.85;102240.63;1668457;85;25907;-77
2022/01/13 00:43:22;;;;;;;60.35;26.20;;;;;;;-0.06;91.82;102203.75;1668762;85;25910;-77
2022/01/13 00:45:49;;;;;;;55.92;23.52;;;;;;;-0.04;91.85;102198.39;1668709;85;25784;-77
2022/01/13 00:48:16;;;;;;;58.98;26.42;;;;;;;-0.08;91.74;102206.08;1668754;85;26128;-77
2022/01/13 00:50:43;;;;;;;55.17;23.60;;;;;;;-0.08;91.69;102203.44;1668727;85;27530;-77
2022/01/13 00:53:09;;;;;;;55.45;23.87;;;;;;;-0.07;91.55;102181.45;1668764;85;26499;-77
2022/01/13 00:55:48;;;;;;;48.35;20.77;;;;;;;-0.05;91.49;102201.52;1669151;85;25324;-76
2022/01/13 00:58:13;;;;;;;52.25;22.05;;;;;;;-0.04;91.47;102215.52;1668512;85;25815;-77
2022/01/13 01:00:39;;;;;;;47.98;20.35;;;;;;;-0.02;91.41;102233.41;1665242;85;25941;-77
2022/01/13 01:03:07;;;;;;;51.70;21.42;;;;;;;-0.02;91.33;102248.75;1668426;85;27478;-77
2022/01/13 01:05:35;;;;;;;51.58;22.32;;;;;;;0.01;91.29;102256.97;1668960;85;25859;-77
2022/01/13 01:08:04;;;;;;;46.70;20.60;;;;;;;0.03;91.18;102252.93;1668455;85;25733;-76
2022/01/13 01:10:30;;;;;;;54.58;21.35;;;;;;;0.02;91.13;102227.08;1669162;85;26219;-77
2022/01/13 01:12:56;;;;;;;46.30;19.98;;;;;;;0.01;91.15;102212.19;1668491;85;26411;-76
2022/01/13 01:15:24;;;;;;;50.58;21.07;;;;;;;0.00;91.14;102211.33;1668925;85;27456;-77
2022/01/13 01:17:58;;;;;;;63.68;23.83;;;;;;;0.02;91.09;102196.78;1668713;85;25787;-77
2022/01/13 01:20:20;;;;;;;60.55;24.75;;;;;;;0.03;91.02;102185.75;1664576;85;26513;-77
2022/01/13 01:27:58;;;;;;;56.50;22.65;;;;;;;0.04;90.87;102177.80;1668953;85;27490;-76
2022/01/13 01:30:41;;;;;;;55.00;22.00;;;;;;;0.07;90.88;102164.90;1668815;85;25903;-77
2022/01/13 01:33:06;;;;;;;61.40;23.62;;;;;;;0.07;90.90;102167.08;1665785;85;25847;-77
2022/01/13 01:35:32;;;;;;;58.90;24.47;;;;;;;0.06;91.02;102175.06;1668860;85;25966;-77
2022/01/13 01:38:00;;;;;;;62.67;23.47;;;;;;;0.07;90.99;102180.70;1668771;85;25732;-77
2022/01/13 01:40:27;;;;;;;64.53;25.15;;;;;;;0.08;91.08;102176.70;1669050;85;27539;-76
2022/01/13 01:42:53;;;;;;;56.68;24.57;;;;;;;0.09;91.12;102198.59;1668443;85;25886;-76
2022/01/13 01:45:19;;;;;;;59.50;25.35;;;;;;;0.09;91.08;102209.99;1664980;85;26538;-77
2022/01/13 01:47:50;;;;;;;52.98;20.68;;;;;;;0.10;91.05;102206.90;1668951;85;25818;-77
2022/01/13 01:50:18;;;;;;;69.05;26.37;;;;;;;0.11;91.12;102218.66;1669262;85;25757;-77
2022/01/13 01:52:52;;;;;;;58.35;22.70;;;;;;;0.11;90.98;102215.20;1668880;85;28726;-77
2022/01/13 01:55:20;;;;;;;72.20;28.98;;;;;;;0.10;90.97;102188.46;1668963;85;25788;-77
2022/01/13 01:57:50;;;;;;;75.15;29.23;;;;;;;0.09;91.01;102174.42;1668724;85;25899;-77
2022/01/13 02:00:21;;;;;;;77.87;29.55;;;;;;;0.08;91.05;102170.57;1668836;85;25760;-77
2022/01/13 02:02:47;;;;;;;70.15;26.85;;;;;;;0.08;91.09;102170.11;1668833;85;26416;-77
2022/01/13 02:05:14;;;;;;;71.28;26.25;;;;;;;0.09;91.20;102170.94;1669299;85;27457;-77
2022/01/13 02:07:40;;;;;;;70.00;26.27;;;;;;;0.10;91.15;102168.70;1665397;85;25911;-77
2022/01/13 02:10:08;;;;;;;62.93;23.75;;;;;;;0.11;91.24;102165.15;1668996;84;25880;-76
2022/01/13 02:12:39;;;;;;;72.30;28.17;;;;;;;0.09;91.49;102162.58;1647267;85;26578;-77
2022/01/13 02:17:38;;;;;;;66.82;25.68;;;;;;;0.06;91.75;102177.25;1669353;85;27532;-77
2022/01/13 02:20:08;;;;;;;73.22;24.32;;;;;;;0.06;91.72;102171.98;1669062;85;25888;-77
2022/01/13 02:22:36;;;;;;;65.63;24.17;;;;;;;0.07;91.76;102163.58;1668768;85;25761;-77
2022/01/13 02:25:04;;;;;;;71.33;27.52;;;;;;;0.07;92.13;102163.13;1669042;85;26553;-77
2022/01/13 02:27:31;;;;;;;71.28;26.33;;;;;;;0.06;91.96;102169.34;1668739;85;25836;-77
2022/01/13 02:29:57;;;;;;;71.70;25.02;;;;;;;0.07;92.09;102180.70;1668654;85;27590;-77
2022/01/13 02:32:25;;;;;;;64.55;23.75;;;;;;;0.07;92.25;102165.76;1668588;85;26510;-77
2022/01/13 02:34:51;;;;;;;56.83;22.07;;;;;;;0.07;92.35;102167.08;1668874;85;25787;-77
2022/01/13 02:37:17;;;;;;;63.30;24.43;;;;;;;0.07;92.78;102160.48;1668626;84;25930;-77
2022/01/13 02:39:44;;;;;;;53.63;20.17;;;;;;;0.06;92.75;102146.09;1668919;85;25977;-77
2022/01/13 02:42:14;;;;;;;63.23;24.72;;;;;;;0.06;92.71;102136.41;1668297;85;27507;-77
2022/01/13 02:45:00;;;;;;;63.90;24.32;;;;;;;0.07;92.71;102135.46;1665578;85;33326;-77
2022/01/13 02:47:34;;;;;;;60.12;21.90;;;;;;;0.08;92.94;102129.27;1667478;85;25870;-77
2022/01/13 02:49:49;;;;;;;61.83;23.00;;;;;;;0.07;93.25;102128.02;1667007;85;26576;-77
2022/01/13 02:52:15;;;;;;;58.02;25.17;;;;;;;0.08;93.13;102124.47;1668336;85;25804;-77
2022/01/13 02:54:42;;;;;;;56.37;24.98;;;;;;;0.08;93.26;102122.69;1668865;85;27534;-77
2022/01/13 02:57:08;;;;;;;53.83;23.60;;;;;;;0.09;93.37;102120.42;1668745;85;25931;-77
2022/01/13 02:59:34;;;;;;;54.83;20.23;;;;;;;0.10;93.57;102124.77;1669039;85;25748;-77
2022/01/13 03:02:00;;;;;;;49.23;19.32;;;;;;;0.10;93.69;102122.59;1665160;85;25926;-77
2022/01/13 03:04:26;;;;;;;51.58;20.97;;;;;;;0.10;93.75;102126.55;1668832;84;25799;-77
2022/01/13 03:06:52;;;;;;;43.85;18.12;;;;;;;0.12;93.82;102117.64;1669165;85;27442;-77
2022/01/13 03:09:21;;;;;;;53.35;20.00;;;;;;;0.14;93.93;102106.55;1668599;85;25920;-77
2022/01/13 03:11:47;;;;;;;45.80;19.32;;;;;;;0.16;93.72;102107.31;1668988;85;25753;-77
2022/01/13 03:14:14;;;;;;;43.75;18.20;;;;;;;0.16;93.98;102105.99;1668737;85;25905;-78
2022/01/13 03:16:43;;;;;;;46.85;17.67;;;;;;;0.18;93.91;102104.13;1665053;85;25805;-77
2022/01/13 03:19:10;;;;;;;47.88;19.27;;;;;;;0.18;94.17;102094.05;1668214;85;27643;-77
2022/01/13 03:21:38;;;;;;;51.95;19.02;;;;;;;0.18;94.09;102087.45;1668599;85;26606;-77
2022/01/13 03:24:09;;;;;;;50.52;20.02;;;;;;;0.19;94.33;102078.17;1668860;85;25835;-77
2022/01/13 03:26:34;;;;;;;46.15;19.98;;;;;;;0.20;94.36;102079.00;1669116;85;26556;-77
2022/01/13 03:31:36;;;;;;;49.03;21.90;;;;;;;0.22;94.65;102087.66;1668479;85;27470;-77
2022/01/13 03:34:02;;;;;;;52.88;22.13;;;;;;;0.21;94.67;102086.84;1668405;85;26532;-77
2022/01/13 03:36:29;;;;;;;48.75;21.15;;;;;;;0.22;94.86;102086.34;1669228;85;25764;-77
2022/01/13 03:38:56;;;;;;;53.33;22.10;;;;;;;0.22;95.22;102079.76;1668587;85;26578;-76
2022/01/13 03:41:22;;;;;;;49.18;19.55;;;;;;;0.20;95.19;102068.00;1668674;85;25805;-77
2022/01/13 03:43:52;;;;;;;45.17;21.85;;;;;;;0.24;95.20;102069.52;1668455;85;26870;-77
2022/01/13 03:46:18;;;;;;;43.05;18.73;;;;;;;0.26;95.52;102065.02;1668811;84;25842;-77
2022/01/13 03:48:45;;;;;;;41.25;17.52;;;;;;;0.26;95.93;102061.52;1668631;84;25857;-77
2022/01/13 03:51:12;;;;;;;42.30;19.62;;;;;;;0.27;95.87;102054.88;1668793;84;26488;-77
2022/01/13 03:54:05;;;;;;;47.00;21.90;;;;;;;0.28;95.69;102045.19;1668778;85;26647;-77
2022/01/13 03:57:11;;;;;;;39.42;16.20;;;;;;;0.29;95.73;102028.42;1667253;85;28314;-77
2022/01/13 04:00:20;;;;;;;42.33;19.23;;;;;;;0.30;96.46;102017.79;1668175;85;26416;-77
2022/01/13 04:02:46;;;;;;;47.43;19.48;;;;;;;0.32;96.03;102028.27;1662770;85;25958;-77
2022/01/13 04:05:13;;;;;;;47.60;19.57;;;;;;;0.32;96.24;102034.36;1669070;85;26582;-77
2022/01/13 04:07:39;;;;;;;43.45;21.02;;;;;;;0.33;96.56;102030.80;1669001;84;25923;-77
2022/01/13 04:10:43;;;;;;;44.67;20.25;;;;;;;0.35;96.52;102030.70;1667887;85;28093;-77
2022/01/13 04:13:21;;;;;;;39.75;19.82;;;;;;;0.36;97.17;102027.16;1667569;85;25846;-77
2022/01/13 04:15:46;;;;;;;42.70;20.60;;;;;;;0.33;97.26;102014.99;1666316;85;25740;-77
2022/01/13 04:18:07;;;;;;;;;;;;;;;0.34;97.29;102016.67;1669135;85;25858;-76
2022/01/13 04:20:34;;;;;;;37.80;17.10;;;;;;;0.35;97.84;101999.09;1667823;85;25781;-78
2022/01/13 04:23:00;;;;;;;42.73;19.20;;;;;;;0.35;97.40;101992.03;1667774;84;27524;-77
2022/01/13 04:25:26;;;;;;;38.80;17.55;;;;;;;0.39;97.38;101990.06;1668381;85;25913;-77
2022/01/13 04:28:00;;;;;;;40.50;19.15;;;;;;;0.39;97.65;101982.16;1669283;84;25373;-77
2022/01/13 04:30:33;;;;;;;41.02;18.20;;;;;;;0.41;97.64;101981.13;1664455;85;25787;-77
2022/01/13 04:32:50;;;;;;;36.63;17.23;;;;;;;0.42;97.30;101989.90;1665985;84;25986;-77
2022/01/13 04:35:18;;;;;;;35.68;15.98;;;;;;;0.43;97.73;101987.16;1668423;85;27485;-77
2022/01/13 04:37:44;;;;;;;34.35;17.75;;;;;;;0.42;97.74;101990.76;1666796;85;25823;-77
2022/01/13 04:40:11;;;;;;;30.08;15.10;;;;;;;0.44;97.64;101986.24;1665737;83;25841;-76
2022/01/13 04:42:41;;;;;;;43.45;19.60;;;;;;;0.45;97.71;101987.92;1682064;84;26673;-77
2022/01/13 04:45:06;;;;;;;33.05;15.40;;;;;;;0.46;97.77;102000.19;1669041;85;26494;-77
2022/01/13 04:47:32;;;;;;;32.10;14.75;;;;;;;0.46;97.76;101998.00;1670089;84;27450;-77
2022/01/13 04:49:58;;;;;;;29.65;15.70;;;;;;;0.46;97.96;101992.27;1671552;85;25798;-79
2022/01/13 04:52:25;;;;;;;30.02;15.00;;;;;;;0.47;97.67;101994.45;1662834;86;26370;-78
2022/01/13 04:54:51;;;;;;;28.42;14.55;;;;;;;0.47;98.11;101984.73;1663293;86;25914;-78
2022/01/13 04:57:17;;;;;;;27.58;15.25;;;;;;;0.48;98.29;101982.48;1667029;85;25791;-78
2022/01/13 04:59:44;;;;;;;27.27;13.88;;;;;;;0.47;98.21;101986.05;1671159;85;27456;-78
2022/01/13 05:02:11;;;;;;;25.97;12.13;;;;;;;0.47;98.49;101970.23;1662474;86;25951;-78
2022/01/13 05:04:37;;;;;;;30.60;12.65;;;;;;;0.47;98.41;101966.77;1663422;86;25883;-78
2022/01/13 05:07:03;;;;;;;19.87;9.10;;;;;;;0.48;98.25;101964.03;1663237;85;26684;-78
2022/01/13 05:09:30;;;;;;;17.98;9.90;;;;;;;0.52;98.37;101964.70;1665954;85;25882;-78
2022/01/13 05:11:56;;;;;;;21.70;10.38;;;;;;;0.51;98.48;101959.06;1668728;84;27437;-78
2022/01/13 05:14:22;;;;;;;22.98;12.55;;;;;;;0.51;98.42;101963.02;1669062;85;25985;-78
2022/01/13 05:17:09;;;;;;;22.02;12.25;;;;;;;0.51;98.72;101961.20;1669091;85;25811;-78
2022/01/13 05:19:37;;;;;;;21.93;10.72;;;;;;;0.52;98.42;101970.83;1667956;85;25958;-78
2022/01/13 05:24:27;;;;;;;24.00;12.35;;;;;;;0.51;98.91;101978.34;1668912;85;28372;-78
2022/01/13 05:26:53;;;;;;;21.37;10.90;;;;;;;0.51;98.86;101971.75;1669224;85;26006;-78
2022/01/13 05:29:21;;;;;;;26.87;13.32;;;;;;;0.52;99.13;101971.28;1668966;85;25759;-78
2022/01/13 05:31:49;;;;;;;24.23;13.78;;;;;;;0.53;99.23;101978.27;1668343;85;26387;-78
2022/01/13 05:34:17;;;;;;;22.42;12.13;;;;;;;0.54;99.13;101979.95;1647393;85;25770;-78
2022/01/13 05:36:44;;;;;;;23.73;12.13;;;;;;;0.55;99.02;101969.34;1668908;84;27636;-77
2022/01/13 05:39:11;;;;;;;21.42;11.30;;;;;;;0.57;99.06;101961.33;1670056;85;25649;-77
2022/01/13 05:41:39;;;;;;;24.82;12.10;;;;;;;0.58;99.32;101945.41;1669553;85;25784;-78
2022/01/13 05:44:05;;;;;;;25.48;11.48;;;;;;;0.59;99.56;101943.17;1668755;85;25815;-78
2022/01/13 05:46:31;;;;;;;23.40;10.72;;;;;;;0.59;99.31;101964.73;1668832;85;25988;-78
2022/01/13 05:48:57;;;;;;;25.25;12.60;;;;;;;0.59;99.46;101952.86;1668905;85;28116;-78
2022/01/13 05:51:24;;;;;;;25.90;12.50;;;;;;;0.60;99.57;101950.59;1668730;85;25827;-77
2022/01/13 05:53:51;;;;;;;18.45;10.72;;;;;;;0.61;99.51;101957.11;1668809;84;25819;-78
2022/01/13 05:56:17;;;;;;;24.35;12.53;;;;;;;0.63;99.62;101944.69;1669159;85;25779;-77
2022/01/13 05:58:43;;;;;;;18.37;10.40;;;;;;;0.63;99.41;101924.91;1668852;85;26562;-77
2022/01/13 06:01:09;;;;;;;23.45;12.28;;;;;;;0.65;99.81;101903.25;1668852;85;27479;-78
2022/01/13 06:03:36;;;;;;;23.10;12.70;;;;;;;0.66;99.53;101908.89;1668616;85;25818;-78
2022/01/13 06:06:02;;;;;;;21.73;12.65;;;;;;;0.67;99.85;101914.56;1668779;85;25709;-78
2022/01/13 06:08:28;;;;;;;21.82;12.73;;;;;;;0.67;99.89;101908.42;1668800;85;26551;-77
2022/01/13 06:10:54;;;;;;;21.42;11.45;;;;;;;0.67;100.00;101909.28;1681098;85;25804;-77
2022/01/13 06:13:21;;;;;;;19.67;11.35;;;;;;;0.68;100.00;101906.19;1680491;85;27644;-78
2022/01/13 06:15:47;;;;;;;21.75;11.15;;;;;;;0.68;100.00;101893.83;1681068;84;25998;-78
2022/01/13 06:18:16;;;;;;;19.00;9.98;;;;;;;0.69;100.00;101887.63;1680997;85;25775;-78
2022/01/13 06:20:43;;;;;;;21.55;11.95;;;;;;;0.69;100.00;101883.67;1681079;84;26561;-79
2022/01/13 06:23:15;;;;;;;23.62;13.32;;;;;;;0.70;100.00;101875.30;1680776;85;25948;-78
2022/01/13 06:25:38;;;;;;;19.92;11.08;;;;;;;0.70;100.00;101875.30;1680569;85;27637;-77
2022/01/13 06:28:06;;;;;;;20.72;10.95;;;;;;;0.70;100.00;101885.38;1680487;84;26235;-78
2022/01/13 06:30:33;;;;;;;18.95;11.83;;;;;;;0.71;100.00;101883.56;1681060;85;25977;-77
2022/01/13 06:32:59;;;;;;;26.37;15.20;;;;;;;0.71;100.00;101851.92;1680572;84;25891;-78
2022/01/13 06:35:26;;;;;;;21.80;13.30;;;;;;;0.70;100.00;101835.28;1681068;84;25868;-78
2022/01/13 06:37:52;;;;;;;24.70;13.22;;;;;;;0.71;100.00;101818.50;1680987;85;27451;-78
2022/01/13 06:40:18;;;;;;;22.32;13.10;;;;;;;0.73;100.00;101808.70;1681022;85;26522;-78
2022/01/13 06:42:45;;;;;;;24.98;13.90;;;;;;;0.73;100.00;101794.66;1680549;83;26065;-78
2022/01/13 06:45:11;;;;;;;21.55;12.28;;;;;;;0.73;100.00;101787.61;1681016;85;26544;-78
2022/01/13 06:47:39;;;;;;;23.75;12.95;;;;;;;0.74;100.00;101785.36;1681222;84;26547;-77
2022/01/13 06:50:07;;;;;;;23.95;14.05;;;;;;;0.76;100.00;101789.21;1680894;84;27540;-78
2022/01/13 06:52:34;;;;;;;22.65;11.85;;;;;;;0.78;100.00;101798.73;1680635;85;25887;-78
2022/01/13 06:55:00;;;;;;;24.02;14.45;;;;;;;0.78;100.00;101803.15;1680732;85;25872;-79
2022/01/13 06:57:29;;;;;;;23.12;12.75;;;;;;;0.79;100.00;101824.64;1680953;85;25829;-78
2022/01/13 06:59:55;;;;;;;29.57;15.28;;;;;;;0.81;100.00;101851.77;1680638;85;25854;-78
2022/01/13 07:02:23;;;;;;;31.33;16.45;;;;;;;0.81;100.00;101851.77;1680456;83;27712;-78
2022/01/13 07:04:49;;;;;;;23.95;13.28;;;;;;;0.83;100.00;101860.89;1680845;84;25830;-78
2022/01/13 07:07:16;;;;;;;26.95;15.18;;;;;;;0.84;100.00;101866.52;1681018;85;25916;-78
2022/01/13 07:09:42;;;;;;;30.90;16.55;;;;;;;0.85;100.00;101858.54;1674993;85;26099;-78
2022/01/13 07:12:10;;;;;;;27.82;14.98;;;;;;;0.88;100.00;101852.23;1668691;85;25798;-78
2022/01/13 07:14:36;;;;;;;28.60;15.58;;;;;;;0.89;100.00;101834.98;1668968;84;27637;-78
2022/01/13 07:17:04;;;;;;;29.35;15.83;;;;;;;0.89;100.00;101824.44;1668889;84;26216;-78
2022/01/13 07:19:31;;;;;;;31.97;15.32;;;;;;;0.92;100.00;101824.22;1668564;85;25794;-79
2022/01/13 07:21:57;;;;;;;39.38;19.60;;;;;;;0.92;100.00;101826.86;1668130;85;25803;-78
2022/01/13 07:24:23;;;;;;;31.93;17.15;;;;;;;0.93;100.00;101814.06;1668177;85;25835;-78
2022/01/13 07:26:50;;;;;;;33.35;17.85;;;;;;;0.95;100.00;101810.00;1669091;84;28258;-78
2022/01/13 07:29:16;;;;;;;41.88;21.07;;;;;;;0.96;100.00;101803.80;1668598;84;25342;-78
2022/01/13 07:31:42;;;;;;;46.40;25.55;;;;;;;0.98;100.00;101815.95;1668775;85;25933;-77
2022/01/13 07:34:08;;;;;;;75.05;34.25;;;;;;;1.00;100.00;101815.85;1668819;85;25816;-77
2022/01/13 07:36:37;;;;;;;67.55;32.63;;;;;;;1.01;100.00;101819.70;1669067;85;25976;-78
2022/01/13 07:39:05;;;;;;;61.15;30.88;;;;;;;1.02;100.00;101827.16;1668988;85;27522;-78
2022/01/13 07:41:33;;;;;;;87.65;41.35;;;;;;;1.04;100.00;101821.30;1668815;85;25890;-78
2022/01/13 07:44:00;;;;;;;73.12;36.45;;;;;;;1.05;100.00;101826.48;1669157;85;25897;-78
2022/01/13 07:46:26;;;;;;;46.05;24.37;;;;;;;1.09;100.00;101840.34;1669601;85;25787;-78
2022/01/13 07:48:53;;;;;;;41.95;23.32;;;;;;;1.10;100.00;101853.44;1680704;83;25792;-78
2022/01/13 07:51:19;;;;;;;35.03;20.75;;;;;;;1.12;100.00;101864.73;1680708;83;27514;-77
2022/01/13 07:53:46;;;;;;;38.25;18.50;;;;;;;1.12;100.00;101851.55;1680067;85;25750;-78
2022/01/13 07:56:12;;;;;;;33.60;17.05;;;;;;;1.15;100.00;101868.98;1680992;85;25880;-78
2022/01/13 07:58:40;;;;;;;36.63;20.17;;;;;;;1.15;100.00;101861.92;1680696;85;25881;-78
2022/01/13 08:01:07;;;;;;;40.12;20.27;;;;;;;1.16;100.00;101857.00;1680854;84;26218;-78
2022/01/13 08:03:33;;;;;;;48.08;27.95;;;;;;;1.17;100.00;101857.39;1680511;84;27448;-78
2022/01/13 08:06:00;;;;;;;81.57;45.70;;;;;;;1.18;100.00;101852.94;1680643;85;25968;-78
2022/01/13 08:08:27;;;;;;;45.25;23.15;;;;;;;1.18;100.00;101837.11;1680930;85;26095;-77
2022/01/13 08:10:53;;;;;;;47.75;28.25;;;;;;;1.18;100.00;101843.23;1680885;83;25728;-78
2022/01/13 08:13:19;;;;;;;44.58;25.60;;;;;;;1.20;100.00;101845.77;1680771;84;25804;-77
2022/01/13 08:15:50;;;;;;;31.20;17.73;;;;;;;1.21;100.00;101851.44;1680698;84;27531;-78
2022/01/13 08:20:58;;;;;;;36.08;20.17;;;;;;;1.24;100.00;101873.70;1680862;83;25798;-78
2022/01/13 08:23:24;;;;;;;37.95;19.57;;;;;;;1.25;100.00;101868.77;1680374;85;25771;-78
2022/01/13 08:25:50;;;;;;;42.10;23.18;;;;;;;1.26;100.00;101867.34;1681051;85;25852;-77
2022/01/13 08:28:16;;;;;;;37.13;20.30;;;;;;;1.28;100.00;101877.83;1680687;84;28560;-78
2022/01/13 08:30:44;;;;;;;41.50;20.90;;;;;;;1.29;100.00;101856.61;1680809;84;25903;-78
2022/01/13 08:33:10;;;;;;;34.10;17.95;;;;;;;1.30;100.00;101851.72;1680716;85;25588;-78
2022/01/13 08:35:43;;;;;;;38.88;20.37;;;;;;;1.32;100.00;101855.11;1680996;84;26461;-78
2022/01/13 08:38:15;;;;;;;41.02;21.33;;;;;;;1.33;100.00;101848.87;1680480;83;25842;-79
2022/01/13 08:40:34;;;;;;;62.70;29.18;;;;;;;1.34;100.00;101853.22;1679614;84;27637;-78
2022/01/13 08:43:03;;;;;;;47.35;23.07;;;;;;;1.34;100.00;101856.32;1680331;85;25796;-78
2022/01/13 08:45:29;;;;;;;61.55;33.42;;;;;;;1.36;100.00;101841.23;1681337;84;26425;-78
2022/01/13 08:47:55;;;;;;;45.92;27.40;;;;;;;1.36;100.00;101828.89;1681033;85;26522;-78
2022/01/13 08:50:22;;;;;;;48.98;28.50;;;;;;;1.38;100.00;101856.03;1681087;85;25779;-78
2022/01/13 08:52:48;;;;;;;41.02;23.40;;;;;;;1.41;100.00;101841.30;1680738;85;27455;-79
2022/01/13 08:55:14;;;;;;;49.25;28.40;;;;;;;1.40;100.00;101823.78;1681121;83;25962;-77
2022/01/13 08:57:40;;;;;;;45.60;23.98;;;;;;;1.41;100.00;101843.94;1680880;84;25899;-78
2022/01/13 09:00:09;;;;;;;47.08;26.20;;;;;;;1.44;100.00;101816.04;1681156;83;26591;-78
2022/01/13 09:02:35;;;;;;;37.08;21.95;;;;;;;1.45;100.00;101821.67;1680876;84;25862;-78
2022/01/13 09:05:04;;;;;;;35.35;20.23;;;;;;;1.46;100.00;101824.70;1681250;84;28408;-77
2022/01/13 09:07:30;;;;;;;44.53;25.00;;;;;;;1.48;100.00;101821.95;1680859;85;25990;-79
2022/01/13 09:09:57;;;;;;;46.77;25.05;;;;;;;1.51;100.00;101822.63;1680855;84;25863;-77
2022/01/13 09:12:24;;;;;;;38.85;20.95;;;;;;;1.51;100.00;101816.03;1680389;85;25965;-77
2022/01/13 09:14:51;;;;;;;46.05;24.72;;;;;;;1.53;100.00;101818.56;1680603;84;25957;-78
2022/01/13 09:17:23;;;;;;;38.00;22.25;;;;;;;1.54;100.00;101817.13;1680674;84;27484;-77
2022/01/13 09:19:50;;;;;;;;;;;;;;;1.58;100.00;101823.55;1683406;84;25906;-77
2022/01/13 09:22:16;;;;;;;44.40;23.35;;;;;;;1.58;100.00;101818.62;1680559;85;26301;-77
2022/01/13 09:24:42;;;;;;;55.08;29.37;;;;;;;1.58;100.00;101819.94;1680778;85;26432;-77
2022/01/13 09:27:08;;;;;;;49.48;28.92;;;;;;;1.60;100.00;101819.86;1680964;85;25946;-78
2022/01/13 09:29:37;;;;;;;47.15;24.85;;;;;;;1.61;100.00;101829.46;1681371;85;27467;-78
2022/01/13 09:32:04;;;;;;;57.13;31.07;;;;;;;1.62;100.00;101832.49;1680781;85;25854;-78
2022/01/13 09:34:31;;;;;;;46.42;26.62;;;;;;;1.65;100.00;101839.38;1681034;84;25921;-78
2022/01/13 09:36:57;;;;;;;44.40;25.62;;;;;;;1.65;100.00;101837.55;1681135;84;25770;-78
2022/01/13 09:39:23;;;;;;;45.80;24.63;;;;;;;1.67;100.00;101830.88;1681007;83;25897;-78
2022/01/13 09:41:52;;;;;;;49.38;27.00;;;;;;;1.69;100.00;101830.30;1680640;84;27499;-77
2022/01/13 09:44:18;;;;;;;41.42;21.87;;;;;;;1.71;100.00;101815.20;1680892;84;25901;-77
2022/01/13 09:46:45;;;;;;;45.63;22.55;;;;;;;1.73;100.00;101802.27;1680822;84;25802;-78
2022/01/13 09:49:12;;;;;;;44.10;24.18;;;;;;;1.75;100.00;101797.73;1680799;85;25866;-78
2022/01/13 09:51:44;;;;;;;43.02;21.77;;;;;;;1.75;100.00;101791.12;1680955;85;26022;-78
2022/01/13 09:54:07;;;;;;;40.58;19.85;;;;;;;1.78;100.00;101791.38;1680017;83;28489;-78
2022/01/13 09:56:34;;;;;;;43.15;23.07;;;;;;;1.80;100.00;101789.48;1680826;85;25986;-78
2022/01/13 09:59:00;;;;;;;43.28;22.22;;;;;;;1.82;100.00;101781.00;1680905;85;25861;-78
2022/01/13 10:01:26;;;;;;;54.95;24.15;;;;;;;1.82;100.00;101780.50;1681129;84;26425;-78
2022/01/13 10:03:52;;;;;;;84.65;36.42;;;;;;;1.83;100.00;101766.36;1680331;84;26060;-78
2022/01/13 10:06:20;;;;;;;50.00;24.27;;;;;;;1.86;100.00;101768.78;1680935;85;28080;-78
2022/01/13 10:08:54;;;;;;;67.50;30.00;;;;;;;1.88;100.00;101770.84;1680946;85;26134;-78
2022/01/13 10:11:34;;;;;;;69.42;34.15;;;;;;;1.90;100.00;101765.02;1668792;85;26034;-77
2022/01/13 10:16:23;;;;;;;103.22;47.23;;;;;;;1.92;100.00;101754.33;1668837;85;26499;-78
2022/01/13 10:16:49;;;;;;;62.05;33.85;;;;;;;1.93;100.00;101759.50;1665447;84;26480;-78
2022/01/13 10:19:44;;;;;;;43.50;21.70;;;;;;;1.95;100.00;101769.49;1668967;84;27498;-78
2022/01/13 10:22:15;;;;;;;38.90;20.23;;;;;;;1.98;100.00;101766.66;1668388;85;26350;-78
2022/01/13 10:24:45;;;;;;;45.23;22.00;;;;;;;1.99;100.00;101760.91;1668876;84;25838;-79
2022/01/13 10:27:19;;;;;;;45.35;22.27;;;;;;;2.02;100.00;101752.75;1669304;85;25999;-78
2022/01/13 10:29:50;;;;;;;49.77;25.88;;;;;;;2.04;100.00;101749.06;1668891;85;25774;-78
2022/01/13 10:32:21;;;;;;;43.52;23.98;;;;;;;2.08;100.00;101751.86;1668608;85;27473;-78
2022/01/13 10:34:49;;;;;;;;;;;;;;;2.12;100.00;101732.67;1671281;84;26545;-78
2022/01/13 10:37:20;;;;;;;43.08;22.25;;;;;;;2.15;100.00;101725.39;1668776;85;25827;-78
2022/01/13 10:40:04;;;;;;;39.08;23.05;;;;;;;2.16;100.00;101719.64;1669373;85;26916;-78
2022/01/13 10:43:06;;;;;;;34.63;19.30;;;;;;;2.18;100.00;101717.23;1668690;85;25861;-77
2022/01/13 10:45:20;;;;;;;39.03;20.90;;;;;;;2.19;100.00;101715.45;1665767;85;27674;-78
2022/01/13 10:47:53;;;;;;;42.03;23.50;;;;;;;2.20;100.00;101716.66;1668228;84;25757;-78
2022/01/13 10:50:24;;;;;;;63.33;33.10;;;;;;;2.23;100.00;101724.85;1669081;84;25787;-78
2022/01/13 10:52:50;;;;;;;;;;;;;;;2.25;100.00;101729.55;1671011;85;26016;-78
2022/01/13 10:55:24;;;;;;;36.68;18.60;;;;;;;2.27;100.00;101739.08;1669054;85;25844;-77
2022/01/13 10:57:52;;;;;;;35.75;19.07;;;;;;;2.28;100.00;101744.75;1669020;84;28339;-78
2022/01/13 11:00:22;;;;;;;29.95;16.62;;;;;;;2.30;100.00;101745.48;1668680;85;26550;-77
2022/01/13 11:03:18;;;;;;;34.38;20.05;;;;;;;2.31;100.00;101731.77;1668615;85;26493;-78
2022/01/13 11:05:52;;;;;;;32.03;16.70;;;;;;;2.32;100.00;101726.86;1668899;85;26483;-78
2022/01/13 11:08:30;;;;;;;31.87;16.75;;;;;;;2.32;100.00;101718.94;1668780;85;26019;-77
2022/01/13 11:11:00;;;;;;;38.58;19.90;;;;;;;2.34;100.00;101705.13;1677737;85;28370;-78
2022/01/13 11:13:29;;;;;;;32.35;18.95;;;;;;;2.35;100.00;101694.44;1680649;84;25803;-77
2022/01/13 11:15:56;;;;;;;36.25;19.92;;;;;;;2.38;100.00;101689.41;1680639;84;25962;-78
2022/01/13 11:18:29;;;;;;;140.18;51.48;;;;;;;2.41;100.00;101691.86;1680906;85;26348;-78
2022/01/13 11:20:58;;;;;;;110.32;47.75;;;;;;;2.43;100.00;101682.02;1680916;84;25783;-78
2022/01/13 11:23:25;;;;;;;41.55;22.52;;;;;;;2.45;100.00;101684.55;1680434;85;27450;-78
2022/01/13 11:25:56;;;;;;;35.23;21.05;;;;;;;2.46;100.00;101678.31;1680663;84;25925;-78
2022/01/13 11:28:23;;;;;;;;;;;;;;;2.47;100.00;101666.77;1683274;85;26494;-78
2022/01/13 11:30:50;;;;;;;30.95;16.62;;;;;;;2.47;100.00;101668.94;1680698;84;26406;-78
2022/01/13 11:33:18;;;;;;;26.97;14.78;;;;;;;2.48;100.00;101668.47;1680111;84;25842;-78
2022/01/13 11:35:49;;;;;;;30.05;14.87;;;;;;;2.51;100.00;101658.98;1680540;84;27471;-78
2022/01/13 11:38:19;;;;;;;29.23;15.93;;;;;;;2.53;100.00;101655.75;1681029;85;25843;-78
2022/01/13 11:40:48;;;;;;;29.07;16.42;;;;;;;2.55;100.00;101658.66;1680674;85;26480;-78